Terminal Aerodrome Forecast
Issued by NWS Caribou, ME

Home | Current Version | Previous Version | Text Only | Print | Product List | Glossary On
Versions: 1 2 3 4 5 6 7 8 9 10 11 12 13 14 15 16 17 18 19 20
858
FTUS41 KCAR 290540
TAFCAR
TAF
KCAR 290540Z 2906/3006 19006KT P6SM OVC030
     FM291400 26008KT P6SM BKN025
     FM291500 27009KT P6SM BKN035
     FM291800 31012G19KT P6SM BKN035
     FM292100 33011G18KT P6SM SCT250=

USA.gov is the U.S. government's official web portal to all federal, state and local government web resources and services.